createdAt,value
2018-09-18T00:00:54.679Z,99.90
2018-09-18T00:03:22.949Z,99.90
2018-09-18T00:05:51.193Z,99.90
2018-09-18T00:08:19.465Z,99.90
2018-09-18T00:10:47.841Z,99.90
2018-09-18T00:13:16.171Z,99.90
2018-09-18T00:15:44.433Z,99.90
2018-09-18T00:18:12.705Z,99.90
2018-09-18T00:20:41.004Z,99.90
2018-09-18T00:23:09.268Z,99.90
2018-09-18T00:25:38.018Z,99.90
2018-09-18T00:28:06.553Z,99.90
2018-09-18T00:30:34.804Z,99.90
2018-09-18T00:33:03.077Z,99.90
2018-09-18T00:35:31.355Z,99.90
2018-09-18T00:37:59.668Z,99.90
2018-09-18T00:40:27.950Z,99.90
2018-09-18T00:42:56.238Z,99.90
2018-09-18T00:45:24.552Z,99.90
2018-09-18T00:47:52.821Z,99.90
2018-09-18T00:50:21.155Z,99.90
2018-09-18T00:52:49.457Z,99.90
2018-09-18T00:55:17.746Z,99.90
2018-09-18T00:57:45.998Z,99.90
2018-09-18T01:00:14.267Z,99.90
2018-09-18T01:02:42.608Z,99.90
2018-09-18T01:05:10.895Z,99.90
2018-09-18T01:07:39.186Z,99.90
2018-09-18T01:10:07.578Z,99.90
2018-09-18T01:12:35.858Z,99.90
2018-09-18T01:15:04.273Z,99.90
2018-09-18T01:17:32.518Z,99.90
2018-09-18T01:20:00.892Z,99.90
2018-09-18T01:22:29.169Z,99.90
2018-09-18T01:24:57.471Z,99.90
2018-09-18T01:27:25.734Z,99.90
2018-09-18T01:29:54.011Z,99.90
2018-09-18T01:32:22.258Z,99.90
2018-09-18T01:34:56.521Z,99.90
2018-09-18T01:37:24.999Z,99.90
2018-09-18T01:39:53.290Z,99.90
2018-09-18T01:42:21.541Z,99.90
2018-09-18T01:44:49.826Z,99.90
2018-09-18T01:47:18.092Z,99.90
2018-09-18T01:49:46.417Z,99.90
2018-09-18T01:52:14.666Z,99.90
2018-09-18T01:54:42.926Z,99.90
2018-09-18T01:57:11.314Z,99.90
2018-09-18T01:59:39.608Z,99.90
2018-09-18T02:02:07.874Z,99.90
2018-09-18T02:04:36.255Z,99.90
2018-09-18T02:07:04.560Z,99.90
2018-09-18T02:09:32.842Z,99.90
2018-09-18T02:12:01.290Z,99.90
2018-09-18T02:14:29.574Z,99.90
2018-09-18T02:16:57.845Z,99.90
2018-09-18T02:19:26.107Z,99.90
2018-09-18T02:21:54.365Z,99.90
2018-09-18T02:24:22.678Z,99.90
2018-09-18T02:26:50.914Z,99.90
2018-09-18T02:29:19.192Z,99.90
2018-09-18T02:31:47.449Z,99.90
2018-09-18T02:34:15.723Z,99.90
2018-09-18T02:36:43.977Z,99.90
2018-09-18T02:39:13.182Z,99.90
2018-09-18T02:41:42.259Z,99.90
2018-09-18T02:44:10.552Z,99.90
2018-09-18T02:46:38.925Z,99.90
2018-09-18T02:49:07.399Z,99.90
2018-09-18T02:51:35.642Z,99.90
2018-09-18T02:54:03.941Z,99.90
2018-09-18T02:56:32.188Z,99.90
2018-09-18T02:59:00.470Z,99.90
2018-09-18T03:01:28.791Z,99.90
2018-09-18T03:03:57.167Z,99.90
2018-09-18T03:06:25.558Z,99.90
2018-09-18T03:08:53.835Z,99.90
2018-09-18T03:11:22.177Z,99.90
2018-09-18T03:13:50.410Z,99.90
2018-09-18T03:16:18.763Z,99.90
2018-09-18T03:18:47.082Z,99.90
2018-09-18T03:21:15.350Z,99.90
2018-09-18T03:23:43.605Z,99.90
2018-09-18T03:26:11.889Z,99.90
2018-09-18T03:28:40.247Z,99.90
2018-09-18T03:31:08.509Z,99.90
2018-09-18T03:33:36.759Z,99.90
2018-09-18T03:36:05.076Z,99.90
2018-09-18T03:38:33.324Z,99.90
2018-09-18T03:41:01.606Z,99.90
2018-09-18T03:43:30.018Z,99.90
2018-09-18T03:45:58.303Z,99.90
2018-09-18T03:48:26.595Z,99.90
2018-09-18T03:50:54.917Z,99.90
2018-09-18T03:53:23.176Z,99.90
2018-09-18T03:55:51.504Z,99.90
2018-09-18T03:58:19.752Z,99.90
2018-09-18T04:00:48.229Z,99.90
2018-09-18T04:03:16.474Z,99.90
2018-09-18T04:05:44.823Z,99.90
2018-09-18T04:08:13.079Z,99.90
2018-09-18T04:10:41.441Z,99.90
2018-09-18T04:13:10.049Z,99.90
2018-09-18T04:15:38.569Z,99.90
2018-09-18T04:18:06.927Z,99.90
2018-09-18T04:20:35.306Z,99.90
2018-09-18T04:23:03.551Z,99.90
2018-09-18T04:25:31.825Z,99.90
2018-09-18T04:28:00.079Z,99.90
2018-09-18T04:30:28.374Z,99.90
2018-09-18T04:32:56.602Z,99.90
2018-09-18T04:35:24.986Z,99.90
2018-09-18T04:37:53.230Z,99.90
2018-09-18T04:40:21.526Z,99.90
2018-09-18T04:42:49.804Z,99.90
2018-09-18T04:45:18.167Z,99.90
2018-09-18T04:47:46.407Z,99.90
2018-09-18T04:50:14.666Z,99.90
2018-09-18T04:52:43.014Z,99.90
2018-09-18T04:55:11.382Z,99.90
2018-09-18T04:57:39.736Z,99.90
2018-09-18T05:00:08.687Z,99.90
2018-09-18T05:02:37.256Z,99.90
2018-09-18T05:05:05.930Z,99.90
2018-09-18T05:07:34.329Z,99.90
2018-09-18T05:10:02.818Z,99.90
2018-09-18T05:12:31.096Z,99.90
2018-09-18T05:14:59.381Z,99.90
2018-09-18T05:17:27.694Z,99.90
2018-09-18T05:19:55.957Z,99.90
2018-09-18T05:22:24.289Z,99.90
2018-09-18T05:24:53.282Z,99.90
2018-09-18T05:27:21.673Z,99.90
2018-09-18T05:29:50.042Z,99.90
2018-09-18T05:32:18.295Z,99.90
2018-09-18T05:34:47.004Z,99.90
2018-09-18T05:37:15.358Z,99.90
2018-09-18T05:39:43.613Z,99.90
2018-09-18T05:42:11.900Z,99.90
2018-09-18T05:44:40.185Z,99.90
2018-09-18T05:47:09.158Z,99.90
2018-09-18T05:49:38.333Z,99.90
2018-09-18T05:52:06.813Z,99.90
2018-09-18T05:54:35.176Z,99.90
2018-09-18T05:57:03.518Z,99.90
2018-09-18T05:59:31.806Z,99.90
2018-09-18T06:02:00.094Z,99.90
2018-09-18T06:04:28.335Z,99.90
2018-09-18T06:06:56.591Z,99.90
2018-09-18T06:09:24.897Z,99.90
2018-09-18T06:12:00.125Z,99.90
2018-09-18T06:14:28.412Z,99.90
2018-09-18T06:16:56.734Z,99.90
2018-09-18T06:19:24.976Z,99.90
2018-09-18T06:21:53.242Z,99.90
2018-09-18T06:24:21.548Z,99.90
2018-09-18T06:26:49.803Z,99.90
2018-09-18T06:29:18.078Z,99.90
2018-09-18T06:31:46.358Z,99.90
2018-09-18T06:34:14.674Z,99.90
2018-09-18T06:36:42.942Z,99.90
2018-09-18T06:39:11.969Z,99.90
2018-09-18T06:41:40.627Z,99.90
2018-09-18T06:44:08.908Z,99.90
2018-09-18T06:46:37.354Z,99.90
2018-09-18T06:49:05.743Z,99.90
2018-09-18T06:51:35.016Z,99.90
2018-09-18T06:54:03.358Z,99.90
2018-09-18T06:56:31.737Z,99.90
2018-09-18T06:58:59.990Z,99.90
2018-09-18T07:01:28.285Z,99.90
2018-09-18T07:03:56.674Z,99.90
2018-09-18T07:06:24.910Z,99.90
2018-09-18T07:08:53.232Z,99.90
2018-09-18T07:11:21.710Z,99.90
2018-09-18T07:13:50.110Z,99.90
2018-09-18T07:16:18.397Z,99.90
2018-09-18T07:18:46.745Z,99.90
2018-09-18T07:21:15.115Z,99.90
2018-09-18T07:23:43.382Z,99.90
2018-09-18T07:26:11.630Z,99.90
2018-09-18T07:28:39.931Z,99.90
2018-09-18T07:31:08.235Z,99.90
2018-09-18T07:33:36.781Z,99.90
2018-09-18T07:36:05.139Z,99.90
2018-09-18T07:38:33.475Z,99.90
2018-09-18T07:41:02.077Z,99.90
2018-09-18T07:43:30.361Z,99.90
2018-09-18T07:45:58.662Z,99.90
2018-09-18T07:48:31.147Z,99.90
2018-09-18T07:50:59.422Z,99.90
2018-09-18T07:53:27.702Z,99.90
2018-09-18T07:55:55.956Z,99.90
2018-09-18T07:58:24.223Z,99.90
2018-09-18T08:00:52.525Z,99.90
2018-09-18T08:03:20.918Z,99.90
2018-09-18T08:05:49.121Z,99.90
2018-09-18T08:08:17.634Z,99.90
2018-09-18T08:10:45.967Z,99.90
2018-09-18T08:13:14.299Z,99.90
2018-09-18T08:15:42.855Z,99.90
2018-09-18T08:18:11.187Z,99.90
2018-09-18T08:20:39.453Z,99.90
2018-09-18T08:23:07.798Z,99.90
2018-09-18T08:25:36.089Z,99.90
2018-09-18T08:28:04.348Z,99.90
2018-09-18T08:30:32.620Z,99.90
2018-09-18T08:33:00.912Z,99.90
2018-09-18T08:35:29.171Z,99.90
2018-09-18T08:37:57.780Z,99.90
2018-09-18T08:40:26.072Z,99.90
2018-09-18T08:42:54.461Z,99.90
2018-09-18T08:45:22.781Z,99.90
2018-09-18T08:47:51.050Z,99.90
2018-09-18T08:50:19.306Z,99.90
2018-09-18T08:52:47.592Z,99.90
2018-09-18T08:55:15.895Z,99.90
2018-09-18T08:57:44.162Z,99.90
2018-09-18T09:00:12.474Z,99.90
2018-09-18T09:02:40.746Z,99.90
2018-09-18T09:05:09.073Z,99.90
2018-09-18T09:07:37.377Z,99.90
2018-09-18T09:10:05.765Z,99.90
2018-09-18T09:12:34.182Z,99.90
2018-09-18T09:15:02.500Z,99.90
2018-09-18T09:17:30.717Z,99.90
2018-09-18T09:19:58.974Z,99.50
2018-09-18T09:22:27.235Z,98.10
2018-09-18T09:24:55.518Z,96.50
2018-09-18T09:27:23.830Z,93.90
2018-09-18T09:29:52.193Z,92.90
2018-09-18T09:32:20.443Z,90.30
2018-09-18T09:34:48.665Z,88.40
2018-09-18T09:37:17.050Z,86.00
2018-09-18T09:39:45.254Z,84.90
2018-09-18T09:42:13.541Z,83.90
2018-09-18T09:44:41.874Z,85.80
2018-09-18T09:47:10.105Z,85.70
2018-09-18T09:49:38.433Z,85.50
2018-09-18T09:52:06.742Z,86.70
2018-09-18T09:54:35.050Z,90.70
2018-09-18T09:57:03.366Z,92.40
2018-09-18T09:59:31.667Z,93.30
2018-09-18T10:02:05.259Z,94.30
2018-09-18T10:04:33.579Z,95.90
2018-09-18T10:07:01.901Z,96.80
2018-09-18T10:09:30.183Z,97.50
2018-09-18T10:11:58.560Z,98.30
2018-09-18T10:14:26.895Z,98.50
2018-09-18T10:16:55.119Z,99.60
2018-09-18T10:19:23.414Z,99.80
2018-09-18T10:21:51.976Z,99.90
2018-09-18T10:24:20.315Z,99.90
2018-09-18T10:26:48.697Z,99.90
2018-09-18T10:29:17.020Z,99.90
2018-09-18T10:31:45.340Z,99.90
2018-09-18T10:34:13.613Z,99.90
2018-09-18T10:36:41.898Z,99.90
2018-09-18T10:39:11.279Z,99.90
2018-09-18T10:41:39.633Z,99.90
2018-09-18T10:44:07.894Z,99.90
2018-09-18T10:46:36.711Z,99.90
2018-09-18T10:49:05.091Z,99.90
2018-09-18T10:51:34.527Z,99.90
2018-09-18T10:54:02.804Z,99.90
2018-09-18T10:56:31.113Z,99.90
2018-09-18T10:58:59.414Z,99.90
2018-09-18T11:01:27.682Z,99.90
2018-09-18T11:03:55.969Z,99.90
2018-09-18T11:06:24.233Z,99.90
2018-09-18T11:08:52.631Z,99.90
2018-09-18T11:11:21.000Z,99.90
2018-09-18T11:13:49.274Z,99.90
2018-09-18T11:16:17.523Z,99.90
2018-09-18T11:18:45.828Z,99.90
2018-09-18T11:21:14.121Z,99.90
2018-09-18T11:23:42.464Z,99.90
2018-09-18T11:26:10.780Z,99.90
2018-09-18T11:28:39.073Z,99.90
2018-09-18T11:31:07.334Z,99.90
2018-09-18T11:33:35.714Z,99.90
2018-09-18T11:36:03.993Z,99.90
2018-09-18T11:38:32.295Z,99.90
2018-09-18T11:41:00.645Z,99.90
2018-09-18T11:43:28.886Z,99.90
2018-09-18T11:45:57.358Z,99.90
2018-09-18T11:48:25.423Z,99.90
2018-09-18T11:50:53.705Z,99.90
2018-09-18T11:53:22.033Z,99.90
2018-09-18T11:55:50.312Z,99.90
2018-09-18T11:58:18.637Z,99.90
2018-09-18T12:00:46.895Z,99.90
2018-09-18T12:03:15.268Z,99.90
2018-09-18T12:05:43.525Z,99.90
2018-09-18T12:08:11.794Z,99.90
2018-09-18T12:10:40.074Z,99.90
2018-09-18T12:13:08.456Z,99.90
2018-09-18T12:15:36.725Z,99.90
2018-09-18T12:18:04.976Z,99.90
2018-09-18T12:20:33.238Z,99.90
2018-09-18T12:23:01.508Z,99.90
2018-09-18T12:25:29.804Z,99.90
2018-09-18T12:27:58.048Z,99.90
2018-09-18T12:30:26.338Z,99.90
2018-09-18T12:32:54.675Z,99.90
2018-09-18T12:35:23.008Z,99.90
2018-09-18T12:37:51.243Z,99.90
2018-09-18T12:40:19.522Z,99.90
2018-09-18T12:42:47.844Z,99.90
2018-09-18T12:45:16.079Z,99.90
2018-09-18T12:47:44.337Z,99.90
2018-09-18T12:50:12.909Z,99.90
2018-09-18T12:52:40.893Z,99.90
2018-09-18T12:55:09.203Z,99.90
2018-09-18T12:57:37.679Z,99.90
2018-09-18T13:00:06.225Z,99.90
2018-09-18T13:02:34.620Z,99.90
2018-09-18T13:05:02.924Z,99.90
2018-09-18T13:07:31.210Z,99.90
2018-09-18T13:09:59.486Z,99.90
2018-09-18T13:12:27.769Z,99.90
2018-09-18T13:14:56.030Z,99.90
2018-09-18T13:17:24.292Z,99.90
2018-09-18T13:19:52.564Z,99.90
2018-09-18T13:22:20.817Z,99.90
2018-09-18T13:24:49.070Z,99.90
2018-09-18T13:27:17.338Z,99.90
2018-09-18T13:29:45.675Z,99.90
2018-09-18T13:32:13.947Z,99.90
2018-09-18T13:34:42.255Z,99.90
2018-09-18T13:37:10.605Z,99.90
2018-09-18T13:39:38.874Z,99.90
2018-09-18T13:42:07.138Z,99.90
2018-09-18T13:44:35.386Z,99.90
2018-09-18T13:47:03.645Z,99.90
2018-09-18T13:49:31.924Z,99.90
2018-09-18T13:52:00.324Z,99.90
2018-09-18T13:54:28.544Z,99.90
2018-09-18T13:56:56.826Z,99.90
2018-09-18T13:59:25.104Z,99.90
2018-09-18T14:01:53.421Z,99.90
2018-09-18T14:04:21.841Z,99.90
2018-09-18T14:06:50.144Z,99.90
2018-09-18T14:09:18.485Z,99.90
2018-09-18T14:11:46.799Z,99.90
2018-09-18T14:14:15.122Z,99.90
2018-09-18T14:16:43.365Z,99.90
2018-09-18T14:19:11.653Z,99.90
2018-09-18T14:21:39.939Z,99.90
2018-09-18T14:24:08.259Z,99.90
2018-09-18T14:26:36.592Z,99.90
2018-09-18T14:29:04.806Z,99.90
2018-09-18T14:31:33.101Z,99.90
2018-09-18T14:34:01.339Z,99.90
2018-09-18T14:36:29.623Z,99.90
2018-09-18T14:38:57.878Z,99.90
2018-09-18T14:41:26.210Z,99.90
2018-09-18T14:43:54.524Z,99.90
2018-09-18T14:46:22.819Z,99.90
2018-09-18T14:48:51.173Z,99.90
2018-09-18T14:51:19.544Z,99.90
2018-09-18T14:53:47.730Z,99.90
2018-09-18T14:56:16.045Z,99.90
2018-09-18T14:58:44.320Z,99.90
2018-09-18T15:01:12.606Z,99.90
2018-09-18T15:03:40.875Z,99.90
2018-09-18T15:06:09.167Z,99.90
2018-09-18T15:08:37.417Z,99.90
2018-09-18T15:11:05.714Z,99.90
2018-09-18T15:13:33.998Z,99.90
2018-09-18T15:16:02.320Z,99.80
2018-09-18T15:18:30.698Z,99.70
2018-09-18T15:20:59.075Z,99.40
2018-09-18T15:23:27.333Z,99.20
2018-09-18T15:25:55.582Z,99.40
2018-09-18T15:28:23.842Z,99.20
2018-09-18T15:30:52.190Z,99.20
2018-09-18T15:33:20.482Z,99.20
2018-09-18T15:35:48.726Z,99.10
2018-09-18T15:38:16.987Z,99.20
2018-09-18T15:40:45.238Z,99.40
2018-09-18T15:43:13.541Z,99.50
2018-09-18T15:45:41.873Z,99.70
2018-09-18T15:48:10.119Z,99.80
2018-09-18T15:50:38.351Z,99.80
2018-09-18T15:53:06.643Z,99.80
2018-09-18T15:55:34.886Z,99.80
2018-09-18T15:58:03.162Z,99.90
2018-09-18T16:00:31.400Z,99.90
2018-09-18T16:02:59.658Z,99.90
2018-09-18T16:05:27.902Z,99.90
2018-09-18T16:07:56.246Z,99.90
2018-09-18T16:10:24.482Z,99.90
2018-09-18T16:12:52.800Z,99.90
2018-09-18T16:15:21.085Z,99.90
2018-09-18T16:17:49.326Z,99.90
2018-09-18T16:20:17.577Z,99.90
2018-09-18T16:22:45.864Z,99.90
2018-09-18T16:25:14.092Z,99.90
2018-09-18T16:27:42.361Z,99.90
2018-09-18T16:30:10.624Z,99.90
2018-09-18T16:32:38.958Z,99.90
2018-09-18T16:35:07.174Z,99.90
2018-09-18T16:37:35.442Z,99.90
2018-09-18T16:40:04.011Z,99.90
2018-09-18T16:42:32.395Z,99.90
2018-09-18T16:45:00.714Z,99.90
2018-09-18T16:47:28.974Z,99.90
2018-09-18T16:49:57.272Z,99.90
2018-09-18T16:52:25.534Z,99.90
2018-09-18T16:54:53.903Z,99.90
2018-09-18T16:57:22.103Z,99.90
2018-09-18T16:59:50.485Z,99.90
2018-09-18T17:02:18.839Z,99.90
2018-09-18T17:04:47.031Z,99.90
2018-09-18T17:07:15.283Z,99.90
2018-09-18T17:09:43.528Z,99.90
2018-09-18T17:12:11.785Z,99.90
2018-09-18T17:14:40.063Z,99.90
2018-09-18T17:17:08.303Z,99.90
2018-09-18T17:19:36.634Z,99.90
2018-09-18T17:22:04.878Z,99.90
2018-09-18T17:24:33.183Z,99.90
2018-09-18T17:27:01.392Z,99.90
2018-09-18T17:29:29.675Z,99.90
2018-09-18T17:31:57.947Z,99.90
2018-09-18T17:34:26.352Z,99.90
2018-09-18T17:36:54.542Z,99.90
2018-09-18T17:39:22.940Z,99.90
2018-09-18T17:41:51.296Z,99.90
2018-09-18T17:44:19.713Z,99.90
2018-09-18T17:46:47.974Z,99.90
2018-09-18T17:49:16.267Z,99.90
2018-09-18T17:51:44.600Z,99.90
2018-09-18T17:54:13.033Z,99.90
2018-09-18T17:56:41.358Z,99.90
2018-09-18T17:59:09.686Z,99.90
2018-09-18T18:01:37.982Z,99.90
2018-09-18T18:04:06.324Z,99.90
2018-09-18T18:06:34.621Z,99.90
2018-09-18T18:09:03.310Z,99.90
2018-09-18T18:11:31.615Z,99.90
2018-09-18T18:13:59.910Z,99.90
2018-09-18T18:16:28.185Z,99.90
2018-09-18T18:18:56.446Z,99.90
2018-09-18T18:21:24.766Z,99.90
2018-09-18T18:23:53.151Z,99.90
2018-09-18T18:26:21.452Z,99.90
2018-09-18T18:28:49.804Z,99.90
2018-09-18T18:31:18.104Z,99.90
2018-09-18T18:33:46.600Z,99.90
2018-09-18T18:36:14.842Z,99.90
2018-09-18T18:38:43.168Z,99.90
2018-09-18T18:41:11.439Z,99.90
2018-09-18T18:43:39.747Z,99.90
2018-09-18T18:46:08.004Z,99.90
2018-09-18T18:48:36.353Z,99.90
2018-09-18T18:51:04.580Z,99.90
2018-09-18T18:53:32.886Z,99.90
2018-09-18T18:56:01.194Z,99.90
2018-09-18T18:58:29.469Z,99.90
2018-09-18T19:00:57.732Z,99.90
2018-09-18T19:03:25.981Z,99.90
2018-09-18T19:05:54.222Z,99.90
2018-09-18T19:08:22.485Z,99.90
2018-09-18T19:10:50.854Z,99.90
2018-09-18T19:13:19.318Z,99.90
2018-09-18T19:15:48.057Z,99.90
2018-09-18T19:18:16.315Z,99.90
2018-09-18T19:20:44.612Z,99.90
2018-09-18T19:23:12.890Z,99.90
2018-09-18T19:25:41.375Z,99.90
2018-09-18T19:28:09.803Z,99.90
2018-09-18T19:30:38.073Z,99.90
2018-09-18T19:33:06.418Z,99.90
2018-09-18T19:35:34.627Z,99.90
2018-09-18T19:38:02.916Z,99.90
2018-09-18T19:40:31.282Z,99.90
2018-09-18T19:42:59.675Z,99.90
2018-09-18T19:45:28.051Z,99.90
2018-09-18T19:47:56.318Z,99.90
2018-09-18T19:50:24.722Z,99.90
2018-09-18T19:52:53.051Z,99.90
2018-09-18T19:55:21.374Z,99.90
2018-09-18T19:57:49.649Z,99.90
2018-09-18T20:00:18.014Z,99.90
2018-09-18T20:02:46.431Z,99.90
2018-09-18T20:05:14.880Z,99.90
2018-09-18T20:07:43.242Z,99.90
2018-09-18T20:10:11.521Z,99.90
2018-09-18T20:12:39.855Z,99.90
2018-09-18T20:15:08.295Z,99.90
2018-09-18T20:17:36.666Z,99.90
2018-09-18T20:20:04.934Z,99.90
2018-09-18T20:22:33.203Z,99.90
2018-09-18T20:25:01.527Z,99.90
2018-09-18T20:27:29.770Z,99.90
2018-09-18T20:29:58.065Z,99.90
2018-09-18T20:32:26.441Z,99.90
2018-09-18T20:34:54.773Z,99.90
2018-09-18T20:37:23.031Z,99.90
2018-09-18T20:39:51.316Z,99.90
2018-09-18T20:42:19.585Z,99.90
2018-09-18T20:44:47.953Z,99.90
2018-09-18T20:47:17.437Z,99.90
2018-09-18T20:49:45.724Z,99.90
2018-09-18T20:52:14.035Z,99.90
2018-09-18T20:54:42.346Z,99.90
2018-09-18T20:57:10.717Z,99.90
2018-09-18T20:59:39.017Z,99.90
2018-09-18T21:02:07.397Z,99.90
2018-09-18T21:04:35.792Z,99.90
2018-09-18T21:07:04.074Z,99.90
2018-09-18T21:09:32.721Z,99.90
2018-09-18T21:12:01.040Z,99.90
2018-09-18T21:14:29.463Z,99.90
2018-09-18T21:16:57.775Z,99.90
2018-09-18T21:19:26.097Z,99.90
2018-09-18T21:21:54.779Z,99.90
2018-09-18T21:24:23.134Z,99.90
2018-09-18T21:26:51.502Z,99.90
2018-09-18T21:29:20.055Z,99.90
2018-09-18T21:31:48.333Z,99.90
2018-09-18T21:34:16.667Z,99.90
2018-09-18T21:36:45.093Z,99.90
2018-09-18T21:39:13.558Z,99.90
2018-09-18T21:41:41.822Z,99.90
2018-09-18T21:44:10.164Z,99.90
2018-09-18T21:46:38.430Z,99.90
2018-09-18T21:49:06.850Z,99.90
2018-09-18T21:51:36.952Z,99.90
2018-09-18T21:54:05.249Z,99.90
2018-09-18T21:56:33.521Z,99.90
2018-09-18T21:59:01.816Z,99.90
2018-09-18T22:01:30.294Z,99.90
2018-09-18T22:03:58.568Z,99.90
2018-09-18T22:06:26.896Z,99.90
2018-09-18T22:08:55.266Z,99.90
2018-09-18T22:11:23.571Z,99.90
2018-09-18T22:13:51.850Z,99.90
2018-09-18T22:16:20.130Z,99.90
2018-09-18T22:18:48.442Z,99.90
2018-09-18T22:21:16.688Z,99.90
2018-09-18T22:23:44.959Z,99.90
2018-09-18T22:26:13.353Z,99.90
2018-09-18T22:28:41.614Z,99.90
2018-09-18T22:31:09.904Z,99.90
2018-09-18T22:33:38.280Z,99.90
2018-09-18T22:36:06.567Z,99.90
2018-09-18T22:38:34.852Z,99.90
2018-09-18T22:41:03.249Z,99.90
2018-09-18T22:43:31.571Z,99.90
2018-09-18T22:45:59.846Z,99.90
2018-09-18T22:48:28.129Z,99.90
2018-09-18T22:50:56.411Z,99.90
2018-09-18T22:53:24.698Z,99.90
2018-09-18T22:55:53.010Z,99.90
2018-09-18T22:58:21.281Z,99.90
2018-09-18T23:00:49.563Z,99.90
2018-09-18T23:03:17.928Z,99.90
2018-09-18T23:05:46.219Z,99.90
2018-09-18T23:08:14.499Z,99.90
2018-09-18T23:10:42.770Z,99.90
2018-09-18T23:13:11.049Z,99.90
2018-09-18T23:15:39.418Z,99.90
2018-09-18T23:18:07.926Z,99.90
2018-09-18T23:20:36.313Z,99.90
2018-09-18T23:23:04.561Z,99.90
2018-09-18T23:25:32.829Z,99.90
2018-09-18T23:28:01.135Z,99.90
2018-09-18T23:30:29.431Z,99.90
2018-09-18T23:32:57.772Z,99.90
2018-09-18T23:35:26.028Z,99.90
2018-09-18T23:37:54.319Z,99.90
2018-09-18T23:40:22.566Z,99.90
2018-09-18T23:42:50.876Z,99.90
2018-09-18T23:45:19.146Z,99.90
2018-09-18T23:47:47.465Z,99.90
2018-09-18T23:50:15.756Z,99.90
2018-09-18T23:52:44.034Z,99.90
2018-09-18T23:55:12.300Z,99.90
2018-09-18T23:57:40.579Z,99.90
